Time;durP1;ratioP1;P1;durP2;ratioP2;P2;SDS_P1;SDS_P2;PMS_P1;PMS_P2;Temp;Humidity;BMP_temperature;BMP_pressure;BME280_temperature;BME280_humidity;BME280_pressure;Samples;Min_cycle;Max_cycle;Signal;HPM_P1;HPM_P2
2020/12/30 00:00:24;;;;;;;12.02;11.00;;;28.30;84.00;;;;;;4918093;28;20274;-50
2020/12/30 00:02:55;;;;;;;12.55;11.35;;;28.40;84.30;;;;;;4928572;28;21064;-56
2020/12/30 00:05:25;;;;;;;14.00;12.63;;;28.40;84.60;;;;;;4931891;28;20240;-52
2020/12/30 00:07:57;;;;;;;13.05;11.85;;;28.40;84.60;;;;;;4965243;28;20377;-49
2020/12/30 00:10:27;;;;;;;14.93;13.43;;;28.40;84.80;;;;;;4969489;28;20224;-50
2020/12/30 00:12:58;;;;;;;15.45;14.18;;;28.40;84.80;;;;;;4969916;28;20239;-51
2020/12/30 00:15:29;;;;;;;17.38;15.85;;;28.50;84.90;;;;;;4974572;28;20232;-49
2020/12/30 00:17:59;;;;;;;15.13;13.75;;;28.50;84.90;;;;;;4966817;28;20692;-56
2020/12/30 00:20:29;;;;;;;17.42;15.80;;;28.50;84.90;;;;;;4967771;28;20311;-50
2020/12/30 00:23:01;;;;;;;17.65;16.20;;;28.60;85.00;;;;;;4968014;28;20677;-53
2020/12/30 00:25:32;;;;;;;15.18;13.82;;;28.60;85.90;;;;;;4960480;28;20233;-55
2020/12/30 00:28:02;;;;;;;16.05;14.55;;;28.60;85.10;;;;;;4980597;28;20228;-54
2020/12/30 00:30:33;;;;;;;15.73;14.30;;;28.70;85.20;;;;;;4969742;28;20232;-50
2020/12/30 00:33:03;;;;;;;16.08;14.77;;;28.70;85.20;;;;;;4969503;28;20267;-51
2020/12/30 00:35:34;;;;;;;15.55;14.13;;;28.80;85.20;;;;;;4969689;28;20321;-51
2020/12/30 00:38:06;;;;;;;15.68;14.18;;;28.80;85.30;;;;;;4969359;28;20286;-50
2020/12/30 00:40:36;;;;;;;14.68;13.48;;;28.80;85.30;;;;;;4968702;28;20314;-51
2020/12/30 00:43:09;;;;;;;14.05;12.90;;;28.90;85.40;;;;;;4969601;28;20227;-49
2020/12/30 00:45:40;;;;;;;15.40;13.98;;;28.90;85.40;;;;;;4974195;28;20560;-50
2020/12/30 00:48:10;;;;;;;19.15;17.55;;;29.00;85.50;;;;;;4963792;28;20708;-52
2020/12/30 00:50:40;;;;;;;23.33;21.33;;;29.00;85.50;;;;;;4958668;28;20287;-50
2020/12/30 00:53:13;;;;;;;22.40;20.48;;;29.10;85.40;;;;;;4964384;28;20240;-51
2020/12/30 00:55:43;;;;;;;22.67;20.58;;;29.10;85.30;;;;;;4966587;28;20278;-53
2020/12/30 00:58:14;;;;;;;24.95;22.80;;;29.20;85.20;;;;;;4938070;28;20313;-49
2020/12/30 01:00:45;;;;;;;22.38;20.48;;;29.20;85.20;;;;;;4930418;28;20618;-50
2020/12/30 01:03:15;;;;;;;23.40;21.00;;;29.30;85.20;;;;;;4924126;28;20235;-50
2020/12/30 01:05:46;;;;;;;21.83;19.92;;;29.30;85.10;;;;;;4926658;29;20264;-49
2020/12/30 01:08:19;;;;;;;23.05;21.02;;;29.30;85.10;;;;;;4925536;29;20238;-49
2020/12/30 01:10:49;;;;;;;22.67;20.60;;;29.40;85.00;;;;;;4927444;28;20230;-50
2020/12/30 01:13:20;;;;;;;22.48;20.48;;;29.40;84.90;;;;;;4924780;28;20233;-50
2020/12/30 01:15:50;;;;;;;22.33;20.33;;;29.50;85.10;;;;;;4922986;28;20237;-50
2020/12/30 01:18:21;;;;;;;20.80;18.90;;;29.50;85.00;;;;;;4923282;28;20288;-49
2020/12/30 01:20:52;;;;;;;17.15;15.65;;;29.60;84.70;;;;;;4924194;28;20248;-50
2020/12/30 01:23:24;;;;;;;14.70;13.35;;;29.70;83.50;;;;;;4925173;28;20238;-49
2020/12/30 01:25:57;;;;;;;14.65;13.32;;;29.70;82.40;;;;;;4927918;28;20331;-49
2020/12/30 01:28:27;;;;;;;14.52;13.10;;;29.80;81.50;;;;;;4933287;28;20247;-50
2020/12/30 01:30:58;;;;;;;14.38;12.93;;;29.80;80.90;;;;;;4966130;28;20361;-52
2020/12/30 01:33:29;;;;;;;12.95;11.65;;;29.90;80.60;;;;;;4965579;28;20242;-50
2020/12/30 01:35:59;;;;;;;14.32;12.63;;;30.00;80.30;;;;;;4970437;28;20228;-49
2020/12/30 01:38:32;;;;;;;13.40;12.15;;;30.00;79.60;;;;;;4977679;28;20295;-51
2020/12/30 01:41:03;;;;;;;13.45;12.25;;;30.10;79.20;;;;;;4964054;28;20312;-52
2020/12/30 01:43:34;;;;;;;13.55;12.25;;;30.20;78.50;;;;;;4970925;28;20228;-53
2020/12/30 01:46:04;;;;;;;13.40;12.27;;;30.30;78.00;;;;;;4963010;28;20300;-50
2020/12/30 01:48:35;;;;;;;16.42;12.50;;;30.30;76.70;;;;;;4964158;28;20237;-49
2020/12/30 01:51:05;;;;;;;13.63;12.35;;;30.40;73.90;;;;;;4965513;28;20247;-51
2020/12/30 01:53:37;;;;;;;12.35;11.10;;;30.40;73.40;;;;;;4967585;28;20315;-50
2020/12/30 01:56:08;;;;;;;12.65;11.02;;;30.60;73.10;;;;;;4971012;28;20233;-50
2020/12/30 01:58:38;;;;;;;12.82;11.73;;;30.60;73.20;;;;;;5010163;28;20234;-52
2020/12/30 02:01:09;;;;;;;12.85;11.55;;;30.60;72.50;;;;;;4980687;28;20313;-50
2020/12/30 02:03:40;;;;;;;10.77;9.80;;;30.70;71.90;;;;;;5000593;28;20277;-55
2020/12/30 02:06:11;;;;;;;14.45;11.85;;;30.80;70.40;;;;;;4969033;28;20319;-51
2020/12/30 02:08:42;;;;;;;12.93;11.77;;;30.80;69.30;;;;;;4969232;28;20244;-52
2020/12/30 02:11:13;;;;;;;11.90;10.70;;;30.90;68.00;;;;;;4967163;28;20712;-52
2020/12/30 02:13:44;;;;;;;12.77;10.80;;;30.90;67.50;;;;;;4969266;28;20296;-52
2020/12/30 02:16:14;;;;;;;10.73;9.82;;;31.00;67.70;;;;;;4969353;28;20272;-50
2020/12/30 02:18:58;;;;;;;10.82;9.73;;;31.10;67.80;;;;;;5001448;28;20238;-55
2020/12/30 02:21:29;;;;;;;9.73;8.93;;;31.10;66.80;;;;;;4976265;28;20233;-50
2020/12/30 02:24:01;;;;;;;9.75;8.85;;;31.20;65.80;;;;;;4968287;28;20243;-51
2020/12/30 02:26:33;;;;;;;10.15;9.15;;;31.20;65.10;;;;;;4989108;28;20253;-51
2020/12/30 02:29:04;;;;;;;10.60;7.97;;;31.20;65.10;;;;;;5027757;28;20237;-52
2020/12/30 02:31:34;;;;;;;8.98;8.07;;;31.30;64.90;;;;;;4992964;28;20274;-51
2020/12/30 02:34:05;;;;;;;10.05;9.05;;;31.30;64.50;;;;;;4974583;28;20263;-50
2020/12/30 02:36:35;;;;;;;9.48;8.68;;;31.20;63.30;;;;;;4968242;28;20324;-51
2020/12/30 02:39:05;;;;;;;11.60;9.20;;;31.30;64.00;;;;;;4966625;28;20249;-51
2020/12/30 02:41:37;;;;;;;11.90;9.40;;;31.30;63.80;;;;;;4964871;28;20247;-52
2020/12/30 02:44:08;;;;;;;9.73;8.88;;;31.30;64.00;;;;;;4965435;28;20232;-52
2020/12/30 02:46:39;;;;;;;12.15;10.80;;;31.40;64.60;;;;;;4966473;28;20239;-54
2020/12/30 02:49:09;;;;;;;11.95;10.75;;;31.40;64.50;;;;;;4964674;28;20239;-50
2020/12/30 02:51:43;;;;;;;11.90;10.77;;;31.50;64.70;;;;;;4961667;28;20319;-51
2020/12/30 02:54:13;;;;;;;12.35;11.23;;;31.50;64.30;;;;;;4967474;28;20721;-50
2020/12/30 02:56:46;;;;;;;12.05;10.93;;;31.50;64.80;;;;;;4962460;28;20241;-51
2020/12/30 02:59:16;;;;;;;12.35;11.25;;;31.60;65.00;;;;;;4966883;28;20238;-51
2020/12/30 03:01:47;;;;;;;11.82;10.60;;;31.60;65.00;;;;;;4967003;28;20236;-49
2020/12/30 03:04:17;;;;;;;13.40;12.30;;;31.60;65.30;;;;;;4966306;28;20748;-51
2020/12/30 03:06:48;;;;;;;11.90;10.80;;;31.70;64.80;;;;;;4967787;28;20244;-54
2020/12/30 03:09:19;;;;;;;12.05;10.95;;;31.70;65.20;;;;;;4969060;28;20235;-50
2020/12/30 03:11:51;;;;;;;12.10;11.00;;;31.70;64.60;;;;;;4992838;28;20280;-49
2020/12/30 03:14:22;;;;;;;12.50;11.30;;;31.80;63.70;;;;;;5052727;28;20237;-51
2020/12/30 03:16:52;;;;;;;11.95;10.73;;;31.80;64.00;;;;;;5022189;28;20236;-54
2020/12/30 03:19:23;;;;;;;12.77;11.48;;;31.80;63.80;;;;;;4969592;28;20740;-52
2020/12/30 03:21:53;;;;;;;12.52;11.13;;;31.90;63.50;;;;;;4956463;28;20620;-53
2020/12/30 03:24:25;;;;;;;10.90;9.80;;;31.90;63.10;;;;;;4960254;28;20232;-52
2020/12/30 03:26:56;;;;;;;10.07;9.07;;;31.90;62.90;;;;;;4970565;28;20242;-52
2020/12/30 03:29:27;;;;;;;9.77;8.88;;;32.00;63.00;;;;;;4970398;28;20608;-50
2020/12/30 03:31:57;;;;;;;9.13;8.23;;;32.00;62.80;;;;;;4959305;28;20240;-54
2020/12/30 03:34:28;;;;;;;9.05;8.32;;;32.10;62.90;;;;;;4963774;28;20260;-52
2020/12/30 03:36:58;;;;;;;8.23;7.50;;;32.10;62.00;;;;;;4970702;28;20240;-50
2020/12/30 03:39:29;;;;;;;8.60;7.50;;;32.10;61.90;;;;;;4969115;28;20237;-49
2020/12/30 03:42:01;;;;;;;8.65;7.85;;;32.20;62.00;;;;;;5002481;28;20240;-55
2020/12/30 03:44:32;;;;;;;7.72;7.03;;;32.30;60.70;;;;;;4966775;28;20642;-50
2020/12/30 03:47:02;;;;;;;7.93;7.20;;;32.30;60.70;;;;;;4969838;28;20236;-51
2020/12/30 03:49:33;;;;;;;7.80;7.07;;;32.40;61.00;;;;;;4967693;28;20233;-52
2020/12/30 03:52:04;;;;;;;7.75;7.05;;;32.50;59.70;;;;;;4960594;28;20233;-50
2020/12/30 03:54:34;;;;;;;6.78;6.28;;;32.60;58.30;;;;;;4966968;28;20319;-51
2020/12/30 03:57:06;;;;;;;8.88;6.60;;;32.60;57.20;;;;;;4963826;28;20229;-53
2020/12/30 03:59:37;;;;;;;6.55;6.05;;;32.70;56.00;;;;;;4966141;28;20296;-53
2020/12/30 04:02:07;;;;;;;6.93;6.22;;;32.80;55.60;;;;;;4969884;28;20236;-51
2020/12/30 04:04:38;;;;;;;8.45;6.45;;;32.90;54.90;;;;;;4969825;28;20236;-53
2020/12/30 04:07:09;;;;;;;8.93;6.85;;;32.90;54.50;;;;;;4973626;28;20252;-53
2020/12/30 04:09:39;;;;;;;6.72;6.15;;;32.90;54.00;;;;;;4969472;28;20241;-52
2020/12/30 04:12:10;;;;;;;6.82;6.13;;;33.00;53.50;;;;;;4969994;28;20229;-52
2020/12/30 04:14:41;;;;;;;6.72;6.13;;;33.00;53.50;;;;;;4999342;28;20236;-52
2020/12/30 04:17:11;;;;;;;7.05;6.15;;;33.10;53.80;;;;;;4966013;28;20236;-50
2020/12/30 04:19:42;;;;;;;7.22;6.57;;;33.10;53.80;;;;;;4968670;28;20749;-54
2020/12/30 04:22:12;;;;;;;6.95;6.25;;;33.20;53.40;;;;;;4969376;28;20232;-53
2020/12/30 04:24:44;;;;;;;8.80;6.88;;;33.20;52.30;;;;;;5004654;28;20229;-53
2020/12/30 04:27:15;;;;;;;7.53;6.75;;;33.20;52.40;;;;;;5026518;28;20257;-50
2020/12/30 04:29:46;;;;;;;6.93;6.10;;;33.30;52.60;;;;;;4967855;28;20326;-51
2020/12/30 04:32:17;;;;;;;7.43;6.60;;;33.40;51.80;;;;;;4968593;28;20708;-50
2020/12/30 04:34:47;;;;;;;6.70;6.10;;;33.40;51.30;;;;;;4966606;28;20232;-52
2020/12/30 04:37:18;;;;;;;6.22;5.63;;;33.40;51.80;;;;;;4968966;28;20315;-51
2020/12/30 04:39:49;;;;;;;7.20;6.50;;;33.50;52.20;;;;;;4968433;28;20244;-50
2020/12/30 04:42:27;;;;;;;8.85;6.32;;;33.50;51.70;;;;;;4969570;28;20233;-51
2020/12/30 04:44:57;;;;;;;7.93;5.85;;;33.60;51.60;;;;;;4971770;28;20293;-50
2020/12/30 04:47:30;;;;;;;8.10;6.28;;;33.60;51.10;;;;;;4969531;28;20237;-50
2020/12/30 04:50:01;;;;;;;9.40;5.85;;;33.70;50.60;;;;;;4960487;28;20260;-50
2020/12/30 04:52:31;;;;;;;6.50;5.80;;;33.70;50.60;;;;;;4951510;28;20232;-52
2020/12/30 04:55:02;;;;;;;8.07;6.28;;;33.80;50.00;;;;;;4965558;28;20235;-50
2020/12/30 04:57:43;;;;;;;5.82;5.20;;;33.80;49.80;;;;;;5050062;28;20285;-50
2020/12/30 05:00:13;;;;;;;7.57;6.25;;;33.90;49.50;;;;;;5027518;28;20220;-53
2020/12/30 05:02:50;;;;;;;6.40;5.75;;;34.00;48.80;;;;;;4999240;28;20668;-51
2020/12/30 05:05:20;;;;;;;5.53;4.93;;;34.10;48.60;;;;;;4928196;29;20242;-52
2020/12/30 05:07:51;;;;;;;7.80;6.07;;;34.10;49.50;;;;;;4911092;28;20325;-51
2020/12/30 05:10:22;;;;;;;7.25;5.95;;;34.20;49.50;;;;;;4870528;28;20232;-50
2020/12/30 05:12:55;;;;;;;5.97;5.13;;;34.20;48.90;;;;;;4815720;29;20244;-50
2020/12/30 05:15:25;;;;;;;6.03;5.43;;;34.30;49.30;;;;;;4816837;29;20297;-52
2020/12/30 05:17:56;;;;;;;5.53;4.95;;;34.30;49.10;;;;;;4803633;29;20797;-52
2020/12/30 05:20:35;;;;;;;6.38;5.15;;;34.40;49.20;;;;;;4815471;29;20313;-53
2020/12/30 05:23:06;;;;;;;5.43;5.03;;;34.40;48.60;;;;;;4816196;29;20237;-53
2020/12/30 05:25:37;;;;;;;5.82;5.30;;;34.60;48.70;;;;;;4816249;29;20253;-50
2020/12/30 05:28:09;;;;;;;6.50;5.00;;;34.60;48.40;;;;;;4816872;29;20312;-51
2020/12/30 05:30:40;;;;;;;6.28;5.68;;;34.70;48.20;;;;;;4816019;29;20242;-50
2020/12/30 05:33:11;;;;;;;6.13;5.20;;;34.70;48.10;;;;;;4816220;29;20237;-53
2020/12/30 05:35:41;;;;;;;6.10;5.60;;;34.80;47.50;;;;;;4828797;29;20317;-53
2020/12/30 05:38:12;;;;;;;5.28;4.78;;;34.80;47.30;;;;;;4870540;29;20242;-50
2020/12/30 05:40:42;;;;;;;7.35;5.65;;;34.90;47.80;;;;;;4884522;29;20238;-57
2020/12/30 05:43:15;;;;;;;7.03;5.80;;;34.90;47.30;;;;;;4936743;28;20818;-50
2020/12/30 05:45:46;;;;;;;5.80;5.20;;;34.90;46.70;;;;;;4968141;28;20609;-52
2020/12/30 05:48:16;;;;;;;5.50;5.00;;;35.00;47.50;;;;;;4968102;28;20239;-50
2020/12/30 05:50:50;;;;;;;5.35;4.88;;;35.00;47.60;;;;;;4967207;28;20239;-51
2020/12/30 05:53:21;;;;;;;5.88;5.03;;;35.00;46.70;;;;;;4967127;28;20238;-51
2020/12/30 05:55:52;;;;;;;6.28;4.97;;;35.10;46.10;;;;;;4968837;28;20739;-52
2020/12/30 05:58:24;;;;;;;6.53;5.30;;;35.10;46.40;;;;;;4967540;28;20320;-52
2020/12/30 06:00:54;;;;;;;6.60;5.28;;;35.20;46.50;;;;;;4967982;28;20324;-51
2020/12/30 06:03:30;;;;;;;5.25;4.75;;;35.20;46.20;;;;;;4967897;28;20278;-55
2020/12/30 06:06:00;;;;;;;6.53;4.97;;;35.30;45.80;;;;;;4968069;28;20720;-50
2020/12/30 06:08:30;;;;;;;5.28;4.78;;;35.30;46.00;;;;;;4967877;28;20320;-53
2020/12/30 06:11:01;;;;;;;6.32;4.75;;;35.30;45.70;;;;;;4968212;28;20312;-51
2020/12/30 06:13:33;;;;;;;5.57;4.78;;;35.30;45.40;;;;;;4927988;29;20260;-50
2020/12/30 06:16:04;;;;;;;4.32;4.00;;;35.40;45.90;;;;;;4858614;28;20247;-52
2020/12/30 06:18:36;;;;;;;5.90;4.90;;;35.40;45.10;;;;;;4855573;29;20419;-53
2020/12/30 06:21:07;;;;;;;6.25;4.20;;;35.50;45.70;;;;;;4868115;29;20231;-51
2020/12/30 06:23:37;;;;;;;4.70;3.92;;;35.50;44.90;;;;;;4877199;29;20264;-52
2020/12/30 06:26:08;;;;;;;4.20;3.70;;;35.60;45.30;;;;;;4876801;29;20264;-51
2020/12/30 06:28:40;;;;;;;4.05;3.70;;;35.60;43.70;;;;;;4877571;29;20240;-51
2020/12/30 06:31:10;;;;;;;6.57;4.20;;;35.60;42.70;;;;;;4876581;29;20727;-52
2020/12/30 06:33:41;;;;;;;6.90;3.65;;;35.60;43.00;;;;;;4876770;29;20305;-55
2020/12/30 06:36:11;;;;;;;3.97;3.60;;;35.70;42.60;;;;;;4875108;29;20236;-51
2020/12/30 06:38:43;;;;;;;5.47;3.40;;;35.60;42.70;;;;;;4919267;29;20237;-55
2020/12/30 06:41:14;;;;;;;4.30;3.90;;;35.70;42.10;;;;;;4932939;29;20749;-56
2020/12/30 06:43:47;;;;;;;6.00;3.83;;;35.70;41.90;;;;;;4962661;28;20275;-53
2020/12/30 06:46:37;;;;;;;3.70;3.30;;;35.70;41.60;;;;;;4982034;28;20226;-51
2020/12/30 06:49:07;;;;;;;8.57;3.70;;;35.70;42.50;;;;;;5011593;28;20315;-54
2020/12/30 06:51:38;;;;;;;5.18;3.72;;;35.80;41.30;;;;;;4968285;28;20241;-55
2020/12/30 06:54:08;;;;;;;6.22;3.47;;;35.80;41.40;;;;;;4967847;28;20243;-54
2020/12/30 06:56:39;;;;;;;6.05;3.40;;;35.80;40.80;;;;;;4967815;28;20762;-51
2020/12/30 06:59:11;;;;;;;4.07;3.20;;;35.80;40.80;;;;;;4964510;28;20232;-51
2020/12/30 07:01:58;;;;;;;6.88;3.60;;;35.80;41.00;;;;;;4972113;28;20603;-51
2020/12/30 07:04:28;;;;;;;3.55;3.03;;;35.90;41.50;;;;;;4968293;28;20229;-50
2020/12/30 07:06:59;;;;;;;3.60;2.85;;;36.00;41.20;;;;;;4968018;28;20228;-50
2020/12/30 07:09:30;;;;;;;3.50;3.20;;;35.90;41.50;;;;;;4966412;28;20283;-50
2020/12/30 07:12:01;;;;;;;4.25;3.05;;;36.00;41.60;;;;;;4968558;28;20283;-50
2020/12/30 07:14:33;;;;;;;2.85;2.65;;;36.00;41.40;;;;;;4967179;28;20228;-51
2020/12/30 07:17:04;;;;;;;4.30;3.00;;;36.10;41.60;;;;;;4965047;28;20239;-50
2020/12/30 07:19:34;;;;;;;3.20;2.88;;;36.10;40.80;;;;;;4968122;28;20629;-51
2020/12/30 07:22:06;;;;;;;4.35;3.25;;;36.20;40.60;;;;;;4967760;28;20719;-50
2020/12/30 07:24:38;;;;;;;5.15;2.92;;;36.20;39.90;;;;;;4968102;28;21988;-52
2020/12/30 07:27:11;;;;;;;3.45;2.67;;;36.20;40.10;;;;;;4966878;28;20267;-53
2020/12/30 07:29:42;;;;;;;2.55;2.35;;;36.30;40.80;;;;;;4965632;28;20649;-53
2020/12/30 07:32:13;;;;;;;5.05;2.92;;;36.30;41.00;;;;;;4964609;28;20572;-53
2020/12/30 07:34:44;;;;;;;5.82;3.33;;;36.30;40.00;;;;;;4967389;28;20573;-50
2020/12/30 07:37:14;;;;;;;3.72;2.60;;;36.40;39.20;;;;;;4967288;28;20228;-53
2020/12/30 07:39:45;;;;;;;3.03;2.72;;;36.40;39.80;;;;;;4965502;28;20233;-52
2020/12/30 07:42:16;;;;;;;5.47;3.05;;;36.40;40.50;;;;;;4962648;28;20237;-52
2020/12/30 07:44:49;;;;;;;7.00;3.30;;;36.50;40.50;;;;;;4963736;28;20263;-52
2020/12/30 07:47:19;;;;;;;5.15;3.20;;;36.40;39.80;;;;;;4965236;28;20601;-52
2020/12/30 07:49:50;;;;;;;5.30;2.78;;;36.50;40.20;;;;;;4965805;28;20676;-51
2020/12/30 07:52:20;;;;;;;6.63;3.30;;;36.50;39.60;;;;;;4966737;28;21686;-51
2020/12/30 07:54:50;;;;;;;3.67;3.08;;;36.50;40.20;;;;;;4942715;28;20396;-53
2020/12/30 07:57:21;;;;;;;5.90;3.40;;;36.50;40.10;;;;;;4933546;28;20237;-54
2020/12/30 07:59:53;;;;;;;3.20;2.90;;;36.50;40.00;;;;;;4925642;29;20234;-51
2020/12/30 08:02:24;;;;;;;3.80;3.50;;;36.50;40.10;;;;;;4924316;28;20247;-51
2020/12/30 08:05:01;;;;;;;3.72;3.20;;;36.50;40.40;;;;;;4920742;28;20689;-55
2020/12/30 08:07:34;;;;;;;3.08;2.83;;;36.50;40.70;;;;;;4922418;28;20261;-51
2020/12/30 08:10:05;;;;;;;3.63;2.80;;;36.50;40.70;;;;;;4926025;29;20234;-56
2020/12/30 08:12:35;;;;;;;5.18;3.10;;;36.50;40.90;;;;;;4927701;28;20242;-54
2020/12/30 08:15:08;;;;;;;4.75;3.20;;;36.60;41.00;;;;;;4928213;29;20234;-52
2020/12/30 08:17:38;;;;;;;3.10;2.70;;;36.60;40.70;;;;;;4928076;28;20249;-53
2020/12/30 08:20:09;;;;;;;3.55;2.90;;;36.60;41.00;;;;;;4917090;29;20234;-52
2020/12/30 08:22:39;;;;;;;3.42;3.13;;;36.60;40.30;;;;;;4926647;28;20242;-50
2020/12/30 08:25:10;;;;;;;5.00;3.20;;;36.70;40.30;;;;;;4928718;29;20245;-50
2020/12/30 08:27:41;;;;;;;3.78;3.35;;;36.70;40.50;;;;;;4927257;28;20245;-50
2020/12/30 08:30:13;;;;;;;4.18;3.55;;;36.70;40.30;;;;;;4890353;28;20326;-51
2020/12/30 08:32:49;;;;;;;4.25;3.20;;;36.70;40.60;;;;;;4887895;28;20243;-52
2020/12/30 08:35:20;;;;;;;4.55;3.05;;;36.70;41.10;;;;;;4887887;29;20311;-55
2020/12/30 08:38:07;;;;;;;4.28;3.10;;;36.80;41.30;;;;;;4889773;29;20231;-51
2020/12/30 08:40:38;;;;;;;3.30;2.80;;;36.80;41.40;;;;;;4889232;28;20262;-52
2020/12/30 08:43:41;;;;;;;5.53;3.00;;;36.90;41.70;;;;;;4885218;28;20247;-51
2020/12/30 08:46:14;;;;;;;3.50;3.20;;;36.90;41.20;;;;;;4938561;28;20253;-55
2020/12/30 08:48:51;;;;;;;5.30;3.40;;;37.00;41.50;;;;;;4965780;28;20724;-52
2020/12/30 08:51:28;;;;;;;5.28;3.80;;;37.00;41.10;;;;;;4962830;28;20224;-54
2020/12/30 08:53:59;;;;;;;5.43;3.55;;;37.10;41.50;;;;;;4974342;28;20232;-52
2020/12/30 08:56:30;;;;;;;4.50;3.60;;;37.10;41.80;;;;;;4988846;28;20274;-50
2020/12/30 08:59:01;;;;;;;4.72;3.10;;;37.20;41.90;;;;;;4987871;28;20242;-53
2020/12/30 09:01:32;;;;;;;4.95;3.10;;;37.20;42.00;;;;;;4988844;28;20235;-50
2020/12/30 09:04:11;;;;;;;3.40;3.10;;;37.30;41.80;;;;;;5003852;28;20243;-55
2020/12/30 09:06:42;;;;;;;3.50;3.20;;;37.30;41.70;;;;;;5007052;28;20233;-54
2020/12/30 09:09:13;;;;;;;4.40;3.40;;;37.30;41.50;;;;;;5006973;28;20249;-53
2020/12/30 09:11:46;;;;;;;6.13;3.72;;;37.30;41.50;;;;;;5006283;28;20743;-53
2020/12/30 09:14:18;;;;;;;4.75;3.97;;;37.30;41.40;;;;;;5014228;28;20226;-51
2020/12/30 09:17:05;;;;;;;4.03;3.60;;;37.30;41.50;;;;;;5022800;28;20815;-52
2020/12/30 09:19:36;;;;;;;4.28;3.28;;;37.30;41.80;;;;;;4988794;28;20279;-51
2020/12/30 09:22:09;;;;;;;4.75;3.75;;;37.30;42.00;;;;;;4960977;28;20236;-61
2020/12/30 09:24:40;;;;;;;8.27;4.18;;;37.30;42.20;;;;;;4953803;28;20772;-55
2020/12/30 09:27:18;;;;;;;8.00;3.90;;;37.20;42.30;;;;;;4962258;28;20256;-52
2020/12/30 09:30:11;;;;;;;4.75;3.92;;;37.20;42.40;;;;;;4953402;28;20228;-54
2020/12/30 09:32:43;;;;;;;5.05;3.50;;;37.20;42.40;;;;;;4960712;28;20236;-54
2020/12/30 09:35:14;;;;;;;4.40;4.00;;;37.20;42.30;;;;;;4953600;28;20584;-56
2020/12/30 09:37:51;;;;;;;4.40;3.88;;;37.20;42.20;;;;;;4959961;28;20252;-53
2020/12/30 09:40:22;;;;;;;6.03;3.65;;;37.20;41.70;;;;;;4959428;28;20780;-50
2020/12/30 09:42:53;;;;;;;5.18;4.22;;;37.20;42.10;;;;;;4960064;28;20228;-56
2020/12/30 09:45:23;;;;;;;4.05;3.50;;;37.20;42.10;;;;;;4958597;28;20240;-49
2020/12/30 09:48:09;;;;;;;7.82;3.85;;;37.20;42.50;;;;;;4957523;28;20263;-53
2020/12/30 09:50:39;;;;;;;3.47;3.17;;;37.30;42.80;;;;;;4963384;28;20638;-54
2020/12/30 09:53:10;;;;;;;3.92;3.40;;;37.40;42.70;;;;;;4958650;28;20229;-52
2020/12/30 09:55:43;;;;;;;8.73;4.10;;;37.50;42.40;;;;;;4960184;28;20233;-49
2020/12/30 09:58:14;;;;;;;5.65;3.97;;;37.60;42.20;;;;;;4968160;28;21004;-51
2020/12/30 10:00:44;;;;;;;4.53;3.80;;;37.70;42.30;;;;;;4967468;28;20229;-54
2020/12/30 10:03:16;;;;;;;6.05;3.75;;;37.70;42.00;;;;;;4963193;28;20246;-52
2020/12/30 10:05:47;;;;;;;5.28;4.10;;;37.70;42.10;;;;;;4960900;28;20232;-51
2020/12/30 10:08:17;;;;;;;4.60;3.92;;;37.70;42.10;;;;;;4961651;28;20738;-53
2020/12/30 10:10:48;;;;;;;8.55;3.60;;;37.70;41.80;;;;;;4961433;28;20696;-54
2020/12/30 10:13:18;;;;;;;7.93;4.10;;;37.60;41.80;;;;;;4957754;28;20236;-53
2020/12/30 10:15:49;;;;;;;4.18;3.63;;;37.50;41.80;;;;;;4960658;28;20581;-51
2020/12/30 10:18:20;;;;;;;4.55;3.97;;;37.50;41.80;;;;;;4966858;28;20233;-51
2020/12/30 10:20:51;;;;;;;4.85;4.18;;;37.50;41.90;;;;;;4965338;28;20697;-50
2020/12/30 10:23:22;;;;;;;4.53;4.13;;;37.40;41.80;;;;;;4968648;28;20232;-53
2020/12/30 10:25:52;;;;;;;4.13;3.72;;;37.40;41.90;;;;;;4962893;28;20243;-53
2020/12/30 10:28:22;;;;;;;5.47;3.83;;;37.40;41.80;;;;;;4953475;28;20237;-56
2020/12/30 10:30:54;;;;;;;3.40;3.13;;;37.30;41.90;;;;;;4969293;28;20282;-56
2020/12/30 10:33:25;;;;;;;7.38;6.60;;;37.20;41.90;;;;;;4968708;28;20233;-52
2020/12/30 10:35:56;;;;;;;11.60;9.38;;;37.20;41.90;;;;;;4963741;28;20228;-53
2020/12/30 10:38:27;;;;;;;10.27;8.38;;;37.20;42.00;;;;;;4962852;28;20237;-51
2020/12/30 10:40:57;;;;;;;8.55;6.47;;;37.20;42.10;;;;;;4959064;28;20604;-54
2020/12/30 10:43:28;;;;;;;5.88;4.53;;;37.10;42.10;;;;;;4964269;28;20302;-52
2020/12/30 10:46:00;;;;;;;4.55;4.13;;;37.10;42.10;;;;;;4958049;28;20235;-52
2020/12/30 10:48:31;;;;;;;4.93;4.38;;;36.90;42.10;;;;;;4958588;28;20228;-53
2020/12/30 10:51:02;;;;;;;6.75;5.90;;;36.90;42.20;;;;;;4960012;28;20237;-50
2020/12/30 10:53:33;;;;;;;5.68;4.15;;;36.80;42.40;;;;;;4967804;28;20233;-53
2020/12/30 10:56:03;;;;;;;13.27;12.00;;;36.60;42.40;;;;;;4925983;28;20234;-50
2020/12/30 10:58:34;;;;;;;27.10;23.67;;;36.50;42.70;;;;;;4922319;28;20250;-51
2020/12/30 11:01:09;;;;;;;16.00;14.38;;;36.40;43.00;;;;;;4924403;28;20238;-52
2020/12/30 11:03:41;;;;;;;15.13;13.27;;;36.30;43.20;;;;;;4922570;29;20273;-54
2020/12/30 11:06:11;;;;;;;24.33;17.27;;;36.10;43.50;;;;;;4914692;28;20292;-54
2020/12/30 11:08:42;;;;;;;27.05;13.32;;;36.00;43.90;;;;;;4922909;28;20323;-53
2020/12/30 11:11:12;;;;;;;33.65;23.63;;;35.90;44.30;;;;;;4939887;28;20229;-55
2020/12/30 11:13:43;;;;;;;42.17;27.75;;;35.80;45.10;;;;;;4927024;29;20242;-54
2020/12/30 11:16:13;;;;;;;43.22;32.00;;;35.70;45.10;;;;;;4925177;28;20716;-51
2020/12/30 11:18:46;;;;;;;31.50;21.90;;;35.60;45.30;;;;;;4927085;28;20295;-51
2020/12/30 11:21:17;;;;;;;58.72;42.15;;;35.50;45.60;;;;;;4961913;28;20352;-51
2020/12/30 11:23:47;;;;;;;54.65;40.10;;;35.40;46.00;;;;;;4984910;28;20236;-49
2020/12/30 11:26:18;;;;;;;65.45;50.17;;;35.30;46.00;;;;;;5022329;28;20644;-50
2020/12/30 11:28:49;;;;;;;94.05;69.53;;;35.20;46.50;;;;;;4971785;28;20244;-52
2020/12/30 11:31:20;;;;;;;110.00;83.07;;;35.10;46.50;;;;;;4989509;28;20719;-49
2020/12/30 11:33:52;;;;;;;81.38;65.88;;;35.10;47.00;;;;;;5018174;28;20233;-51
2020/12/30 11:36:27;;;;;;;67.38;48.75;;;35.00;46.70;;;;;;4958193;28;20236;-53
2020/12/30 11:38:58;;;;;;;44.70;30.98;;;34.90;46.70;;;;;;4955663;28;20285;-54
2020/12/30 11:41:28;;;;;;;25.95;20.38;;;34.80;46.70;;;;;;4954096;28;20245;-53
2020/12/30 11:43:59;;;;;;;15.93;13.27;;;34.70;46.80;;;;;;4920938;28;20714;-54
2020/12/30 11:46:29;;;;;;;12.07;9.45;;;34.60;47.00;;;;;;4935259;28;20234;-51
2020/12/30 11:49:01;;;;;;;18.33;10.68;;;34.60;47.00;;;;;;4931781;28;20239;-56
2020/12/30 11:51:31;;;;;;;14.10;9.25;;;34.50;47.40;;;;;;4916946;29;20333;-55
2020/12/30 11:54:02;;;;;;;12.40;9.27;;;34.40;47.60;;;;;;4964848;28;20223;-53
2020/12/30 11:56:32;;;;;;;13.75;9.85;;;34.40;47.80;;;;;;5004339;28;20246;-53
2020/12/30 11:59:02;;;;;;;19.17;13.35;;;34.30;48.00;;;;;;4971323;28;20230;-51
2020/12/30 12:01:36;;;;;;;17.10;11.63;;;34.20;48.50;;;;;;4914149;29;20250;-53
2020/12/30 12:04:07;;;;;;;20.50;12.57;;;34.20;48.30;;;;;;4907177;29;20325;-55
2020/12/30 12:06:38;;;;;;;29.23;17.55;;;34.10;48.70;;;;;;4925959;28;20248;-51
2020/12/30 12:09:08;;;;;;;22.70;17.38;;;34.00;49.40;;;;;;4937160;28;20236;-50
2020/12/30 12:11:39;;;;;;;30.52;20.10;;;34.00;49.50;;;;;;4967920;28;20229;-51
2020/12/30 12:14:09;;;;;;;34.40;24.40;;;33.90;49.80;;;;;;4967463;28;20236;-51
2020/12/30 12:16:41;;;;;;;37.90;25.48;;;33.90;50.10;;;;;;4962502;28;20237;-51
2020/12/30 12:19:12;;;;;;;35.92;25.02;;;33.80;49.70;;;;;;4960125;28;20237;-50
2020/12/30 12:21:45;;;;;;;22.33;16.83;;;33.80;49.90;;;;;;4966499;28;20232;-52
2020/12/30 12:24:15;;;;;;;20.48;15.02;;;33.70;49.60;;;;;;4965848;28;20232;-51
2020/12/30 12:26:46;;;;;;;13.77;10.38;;;33.70;49.70;;;;;;4966283;28;20256;-51
2020/12/30 12:29:43;;;;;;;12.85;9.88;;;33.60;49.30;;;;;;4961163;28;20313;-50
2020/12/30 12:32:15;;;;;;;13.13;11.65;;;33.50;49.30;;;;;;4971384;28;20301;-52
2020/12/30 12:34:48;;;;;;;10.98;9.80;;;33.50;49.60;;;;;;4984163;28;20315;-55
2020/12/30 12:37:18;;;;;;;9.88;8.02;;;33.40;49.70;;;;;;4970039;28;20744;-52
2020/12/30 12:39:49;;;;;;;11.13;8.77;;;33.40;50.10;;;;;;4994479;28;20599;-53
2020/12/30 12:42:19;;;;;;;10.20;8.93;;;33.30;49.90;;;;;;4961761;28;20229;-50
2020/12/30 12:44:52;;;;;;;9.13;8.18;;;33.30;50.20;;;;;;4947595;28;20249;-54
2020/12/30 12:47:23;;;;;;;7.88;7.05;;;33.20;50.00;;;;;;5002430;28;20225;-53
2020/12/30 12:49:54;;;;;;;8.45;6.93;;;33.10;49.80;;;;;;4982038;28;20230;-55
2020/12/30 12:52:25;;;;;;;7.13;6.38;;;33.10;50.00;;;;;;4964793;28;20228;-53
2020/12/30 12:54:55;;;;;;;6.28;5.78;;;33.00;50.00;;;;;;4965811;28;20236;-55
2020/12/30 12:57:26;;;;;;;6.28;5.70;;;33.00;49.80;;;;;;4982668;28;20244;-52
2020/12/30 12:59:56;;;;;;;6.35;5.75;;;33.00;49.90;;;;;;4967290;28;20231;-52
2020/12/30 13:02:27;;;;;;;7.07;5.70;;;32.90;50.00;;;;;;4982321;28;20232;-56